Accueil
METAR-TAF:

METAR-TAF

Aéroports :

Le Caire, Égypte

Aéroport international du Caire

latitude: 30-08N, longitude: 031-24E, altitude: 64 m

Observation

Le bulletin a été fait il y a 24 minutes, à 03:30 UTC
Vent 5 kt de nord
Température 17°C
Humidité 68%
Pression 1016 hPa
Visibilité: 3000 m
brume sèche

METAR: HECA 230330Z 01005KT 3000 HZ NSC 17/11 Q1016 TEMPO 4000

Heure: 05:54 (03:54 UTC)

Prévision

Le bulletin a été fait il y a 4 heures et 54 minutes, à 23:00 UTC
Prévision valable du 23 à 00 UTC au 24 à 06 UTC
Vent 7 kt de nord
Visibilité 10 km ou plus
pas de nuages en-dessous de 1500 mètres et pas de cumulonimbus.
Temporairement
du 23 à 00 UTC au 23 à 06 UTC
Vent 3 kt de direction variable
Visibilité: 4000 m
brume sèche

TAF: HECA 222300Z 2300/2406 01007KT CAVOK TEMPO 2300/2306 VRB03KT 4000 HZ NSC

Observations et prévisions météorologiques de plus de 4000 aéroports (messages METAR et TAF).

Les stations disponibles sont représentées par des disques jaunes et rouges sur la carte.

Passer la souris dessus pour voir le nom de la station.

Cliquer dessus pour voir les observations et prévisions météorologiques.

Pour changer de carte: cliquez sur les boutons verts avec une croix noire pour zoomer, sur le bouton vert avec un tiret pour effectuer un zoom arrière, ou sur les flèches vertes pour les cartes adjacentes.


METAR-TAF: